sensor_id;sensor_type;location;lat;lon;timestamp;P1;durP1;ratioP1;P2;durP2;ratioP2
38264;SDS011;24062;47.480;8.768;2023-12-29T00:02:10;1.80;;;1.30;;
38264;SDS011;24062;47.480;8.768;2023-12-29T00:04:37;1.70;;;1.40;;
38264;SDS011;24062;47.480;8.768;2023-12-29T00:07:04;2.30;;;1.53;;
38264;SDS011;24062;47.480;8.768;2023-12-29T00:09:31;2.07;;;1.47;;
38264;SDS011;24062;47.480;8.768;2023-12-29T00:12:03;2.40;;;2.07;;
38264;SDS011;24062;47.480;8.768;2023-12-29T00:14:30;1.80;;;1.30;;
38264;SDS011;24062;47.480;8.768;2023-12-29T00:16:57;2.00;;;1.30;;
38264;SDS011;24062;47.480;8.768;2023-12-29T00:19:26;1.77;;;1.37;;
38264;SDS011;24062;47.480;8.768;2023-12-29T00:21:53;2.07;;;1.23;;
38264;SDS011;24062;47.480;8.768;2023-12-29T00:24:19;2.07;;;1.40;;
38264;SDS011;24062;47.480;8.768;2023-12-29T00:26:46;1.97;;;1.40;;
38264;SDS011;24062;47.480;8.768;2023-12-29T00:29:13;2.40;;;1.53;;
38264;SDS011;24062;47.480;8.768;2023-12-29T00:31:40;2.17;;;1.60;;
38264;SDS011;24062;47.480;8.768;2023-12-29T00:34:07;1.93;;;1.47;;
38264;SDS011;24062;47.480;8.768;2023-12-29T00:36:35;1.70;;;1.13;;
38264;SDS011;24062;47.480;8.768;2023-12-29T00:39:02;1.83;;;1.57;;
38264;SDS011;24062;47.480;8.768;2023-12-29T00:41:29;1.87;;;1.30;;
38264;SDS011;24062;47.480;8.768;2023-12-29T00:43:56;1.97;;;1.50;;
38264;SDS011;24062;47.480;8.768;2023-12-29T00:46:23;1.73;;;1.20;;
38264;SDS011;24062;47.480;8.768;2023-12-29T00:48:49;1.90;;;1.33;;
38264;SDS011;24062;47.480;8.768;2023-12-29T00:51:16;1.90;;;1.50;;
38264;SDS011;24062;47.480;8.768;2023-12-29T00:53:44;2.20;;;1.47;;
38264;SDS011;24062;47.480;8.768;2023-12-29T00:56:11;2.20;;;1.80;;
38264;SDS011;24062;47.480;8.768;2023-12-29T00:58:38;1.93;;;1.27;;
38264;SDS011;24062;47.480;8.768;2023-12-29T01:01:06;2.13;;;1.60;;
38264;SDS011;24062;47.480;8.768;2023-12-29T01:03:36;2.23;;;1.70;;
38264;SDS011;24062;47.480;8.768;2023-12-29T01:06:03;1.80;;;1.37;;
38264;SDS011;24062;47.480;8.768;2023-12-29T01:08:30;2.03;;;1.40;;
38264;SDS011;24062;47.480;8.768;2023-12-29T01:10:59;1.70;;;1.27;;
38264;SDS011;24062;47.480;8.768;2023-12-29T01:13:26;1.77;;;1.37;;
38264;SDS011;24062;47.480;8.768;2023-12-29T01:15:53;1.60;;;1.00;;
38264;SDS011;24062;47.480;8.768;2023-12-29T01:18:20;1.83;;;1.57;;
38264;SDS011;24062;47.480;8.768;2023-12-29T01:20:47;1.80;;;1.10;;
38264;SDS011;24062;47.480;8.768;2023-12-29T01:23:14;1.70;;;1.27;;
38264;SDS011;24062;47.480;8.768;2023-12-29T01:25:41;2.07;;;1.07;;
38264;SDS011;24062;47.480;8.768;2023-12-29T01:28:09;2.10;;;1.37;;
38264;SDS011;24062;47.480;8.768;2023-12-29T01:30:36;1.70;;;1.10;;
38264;SDS011;24062;47.480;8.768;2023-12-29T01:33:03;1.93;;;1.30;;
38264;SDS011;24062;47.480;8.768;2023-12-29T01:35:30;1.80;;;1.10;;
38264;SDS011;24062;47.480;8.768;2023-12-29T01:37:57;1.80;;;1.10;;
38264;SDS011;24062;47.480;8.768;2023-12-29T01:40:24;1.93;;;1.27;;
38264;SDS011;24062;47.480;8.768;2023-12-29T01:42:51;1.70;;;1.23;;
38264;SDS011;24062;47.480;8.768;2023-12-29T01:45:21;1.60;;;1.27;;
38264;SDS011;24062;47.480;8.768;2023-12-29T01:47:48;1.80;;;1.23;;
38264;SDS011;24062;47.480;8.768;2023-12-29T01:50:17;1.60;;;1.10;;
38264;SDS011;24062;47.480;8.768;2023-12-29T01:52:45;1.80;;;1.30;;
38264;SDS011;24062;47.480;8.768;2023-12-29T01:55:15;1.93;;;1.40;;
38264;SDS011;24062;47.480;8.768;2023-12-29T01:57:44;2.30;;;1.27;;
38264;SDS011;24062;47.480;8.768;2023-12-29T02:00:13;2.07;;;1.03;;
38264;SDS011;24062;47.480;8.768;2023-12-29T02:02:42;1.70;;;1.10;;
38264;SDS011;24062;47.480;8.768;2023-12-29T02:05:13;1.87;;;1.33;;
38264;SDS011;24062;47.480;8.768;2023-12-29T02:07:41;1.63;;;1.00;;
38264;SDS011;24062;47.480;8.768;2023-12-29T02:10:08;1.67;;;1.10;;
38264;SDS011;24062;47.480;8.768;2023-12-29T02:12:38;1.70;;;1.10;;
38264;SDS011;24062;47.480;8.768;2023-12-29T02:15:06;1.60;;;1.10;;
38264;SDS011;24062;47.480;8.768;2023-12-29T02:17:36;1.60;;;1.20;;
38264;SDS011;24062;47.480;8.768;2023-12-29T02:20:08;1.70;;;1.10;;
38264;SDS011;24062;47.480;8.768;2023-12-29T02:22:36;2.03;;;1.10;;
38264;SDS011;24062;47.480;8.768;2023-12-29T02:25:04;1.87;;;1.20;;
38264;SDS011;24062;47.480;8.768;2023-12-29T02:27:34;1.70;;;1.13;;
38264;SDS011;24062;47.480;8.768;2023-12-29T02:30:24;1.73;;;1.10;;
38264;SDS011;24062;47.480;8.768;2023-12-29T02:32:55;1.90;;;1.03;;
38264;SDS011;24062;47.480;8.768;2023-12-29T02:35:28;1.70;;;1.10;;
38264;SDS011;24062;47.480;8.768;2023-12-29T02:37:58;1.90;;;1.00;;
38264;SDS011;24062;47.480;8.768;2023-12-29T02:40:26;1.83;;;1.10;;
38264;SDS011;24062;47.480;8.768;2023-12-29T02:42:53;1.70;;;1.20;;
38264;SDS011;24062;47.480;8.768;2023-12-29T02:45:21;1.40;;;0.90;;
38264;SDS011;24062;47.480;8.768;2023-12-29T02:47:48;1.70;;;0.80;;
38264;SDS011;24062;47.480;8.768;2023-12-29T02:50:16;1.80;;;1.10;;
38264;SDS011;24062;47.480;8.768;2023-12-29T02:52:43;1.70;;;1.00;;
38264;SDS011;24062;47.480;8.768;2023-12-29T02:55:10;1.73;;;1.20;;
38264;SDS011;24062;47.480;8.768;2023-12-29T02:57:38;1.40;;;0.90;;
38264;SDS011;24062;47.480;8.768;2023-12-29T03:00:05;1.70;;;1.20;;
38264;SDS011;24062;47.480;8.768;2023-12-29T03:02:33;1.50;;;0.90;;
38264;SDS011;24062;47.480;8.768;2023-12-29T03:05:00;1.80;;;1.20;;
38264;SDS011;24062;47.480;8.768;2023-12-29T03:07:27;2.47;;;1.20;;
38264;SDS011;24062;47.480;8.768;2023-12-29T03:09:54;1.80;;;1.30;;
38264;SDS011;24062;47.480;8.768;2023-12-29T03:12:21;1.60;;;1.13;;
38264;SDS011;24062;47.480;8.768;2023-12-29T03:14:49;1.83;;;1.10;;
38264;SDS011;24062;47.480;8.768;2023-12-29T03:17:16;1.60;;;1.00;;
38264;SDS011;24062;47.480;8.768;2023-12-29T03:19:43;1.57;;;1.00;;
38264;SDS011;24062;47.480;8.768;2023-12-29T03:22:10;1.80;;;1.30;;
38264;SDS011;24062;47.480;8.768;2023-12-29T03:24:37;1.90;;;1.40;;
38264;SDS011;24062;47.480;8.768;2023-12-29T03:27:06;1.60;;;0.97;;
38264;SDS011;24062;47.480;8.768;2023-12-29T03:29:33;1.53;;;0.90;;
38264;SDS011;24062;47.480;8.768;2023-12-29T03:32:01;1.80;;;1.00;;
38264;SDS011;24062;47.480;8.768;2023-12-29T03:34:28;1.90;;;1.10;;
38264;SDS011;24062;47.480;8.768;2023-12-29T03:36:55;1.60;;;1.07;;
38264;SDS011;24062;47.480;8.768;2023-12-29T03:39:21;1.47;;;0.90;;
38264;SDS011;24062;47.480;8.768;2023-12-29T03:41:48;1.80;;;1.20;;
38264;SDS011;24062;47.480;8.768;2023-12-29T03:44:15;1.80;;;0.80;;
38264;SDS011;24062;47.480;8.768;2023-12-29T03:46:43;1.60;;;1.10;;
38264;SDS011;24062;47.480;8.768;2023-12-29T03:49:11;2.10;;;1.00;;
38264;SDS011;24062;47.480;8.768;2023-12-29T03:51:38;1.53;;;1.00;;
38264;SDS011;24062;47.480;8.768;2023-12-29T03:54:05;2.40;;;1.30;;
38264;SDS011;24062;47.480;8.768;2023-12-29T03:56:32;1.80;;;0.93;;
38264;SDS011;24062;47.480;8.768;2023-12-29T03:58:58;1.53;;;0.97;;
38264;SDS011;24062;47.480;8.768;2023-12-29T04:01:25;1.77;;;1.17;;
38264;SDS011;24062;47.480;8.768;2023-12-29T04:03:53;1.60;;;1.13;;
38264;SDS011;24062;47.480;8.768;2023-12-29T04:06:21;1.60;;;0.90;;
38264;SDS011;24062;47.480;8.768;2023-12-29T04:08:48;1.67;;;1.10;;
38264;SDS011;24062;47.480;8.768;2023-12-29T04:11:15;1.60;;;1.07;;
38264;SDS011;24062;47.480;8.768;2023-12-29T04:13:41;1.60;;;1.00;;
38264;SDS011;24062;47.480;8.768;2023-12-29T04:16:08;1.90;;;1.10;;
38264;SDS011;24062;47.480;8.768;2023-12-29T04:18:35;1.60;;;1.10;;
38264;SDS011;24062;47.480;8.768;2023-12-29T04:21:02;2.00;;;1.17;;
38264;SDS011;24062;47.480;8.768;2023-12-29T04:23:31;1.93;;;1.00;;
38264;SDS011;24062;47.480;8.768;2023-12-29T04:25:57;1.40;;;0.90;;
38264;SDS011;24062;47.480;8.768;2023-12-29T04:28:24;1.60;;;0.90;;
38264;SDS011;24062;47.480;8.768;2023-12-29T04:30:51;1.83;;;1.00;;
38264;SDS011;24062;47.480;8.768;2023-12-29T04:33:18;1.60;;;0.90;;
38264;SDS011;24062;47.480;8.768;2023-12-29T04:35:45;1.60;;;1.03;;
38264;SDS011;24062;47.480;8.768;2023-12-29T04:38:12;1.70;;;1.20;;
38264;SDS011;24062;47.480;8.768;2023-12-29T04:40:40;1.70;;;1.10;;
38264;SDS011;24062;47.480;8.768;2023-12-29T04:43:07;1.40;;;1.00;;
38264;SDS011;24062;47.480;8.768;2023-12-29T04:45:34;1.67;;;1.03;;
38264;SDS011;24062;47.480;8.768;2023-12-29T04:48:01;2.17;;;0.97;;
38264;SDS011;24062;47.480;8.768;2023-12-29T04:50:28;1.40;;;0.80;;
38264;SDS011;24062;47.480;8.768;2023-12-29T04:52:54;1.60;;;1.00;;
38264;SDS011;24062;47.480;8.768;2023-12-29T04:55:21;1.80;;;1.00;;
38264;SDS011;24062;47.480;8.768;2023-12-29T04:57:49;1.43;;;0.83;;
38264;SDS011;24062;47.480;8.768;2023-12-29T05:00:16;1.70;;;1.10;;
38264;SDS011;24062;47.480;8.768;2023-12-29T05:02:44;1.33;;;0.80;;
38264;SDS011;24062;47.480;8.768;2023-12-29T05:05:10;1.80;;;1.00;;
38264;SDS011;24062;47.480;8.768;2023-12-29T05:07:37;1.40;;;0.80;;
38264;SDS011;24062;47.480;8.768;2023-12-29T05:10:04;1.60;;;0.93;;
38264;SDS011;24062;47.480;8.768;2023-12-29T05:12:32;1.40;;;0.80;;
38264;SDS011;24062;47.480;8.768;2023-12-29T05:15:00;1.60;;;1.00;;
38264;SDS011;24062;47.480;8.768;2023-12-29T05:17:27;2.23;;;1.13;;
38264;SDS011;24062;47.480;8.768;2023-12-29T05:19:54;1.63;;;1.00;;
38264;SDS011;24062;47.480;8.768;2023-12-29T05:22:21;1.50;;;0.90;;
38264;SDS011;24062;47.480;8.768;2023-12-29T05:24:48;1.77;;;1.00;;
38264;SDS011;24062;47.480;8.768;2023-12-29T05:27:15;1.50;;;0.90;;
38264;SDS011;24062;47.480;8.768;2023-12-29T05:29:42;1.43;;;0.87;;
38264;SDS011;24062;47.480;8.768;2023-12-29T05:32:10;1.50;;;0.90;;
38264;SDS011;24062;47.480;8.768;2023-12-29T05:34:37;1.50;;;0.90;;
38264;SDS011;24062;47.480;8.768;2023-12-29T05:37:03;1.87;;;0.90;;
38264;SDS011;24062;47.480;8.768;2023-12-29T05:39:30;1.50;;;1.07;;
38264;SDS011;24062;47.480;8.768;2023-12-29T05:41:57;1.70;;;1.03;;
38264;SDS011;24062;47.480;8.768;2023-12-29T05:44:24;1.50;;;0.90;;
38264;SDS011;24062;47.480;8.768;2023-12-29T05:46:51;1.60;;;1.00;;
38264;SDS011;24062;47.480;8.768;2023-12-29T05:49:25;1.53;;;1.00;;
38264;SDS011;24062;47.480;8.768;2023-12-29T05:51:52;1.60;;;0.93;;
38264;SDS011;24062;47.480;8.768;2023-12-29T05:54:19;1.97;;;1.20;;
38264;SDS011;24062;47.480;8.768;2023-12-29T05:56:45;1.50;;;0.90;;
38264;SDS011;24062;47.480;8.768;2023-12-29T05:59:12;1.97;;;1.27;;
38264;SDS011;24062;47.480;8.768;2023-12-29T06:01:39;1.57;;;1.00;;
38264;SDS011;24062;47.480;8.768;2023-12-29T06:04:07;1.70;;;0.90;;
38264;SDS011;24062;47.480;8.768;2023-12-29T06:06:35;1.67;;;1.00;;
38264;SDS011;24062;47.480;8.768;2023-12-29T06:09:02;1.67;;;0.80;;
38264;SDS011;24062;47.480;8.768;2023-12-29T06:11:29;1.40;;;0.70;;
38264;SDS011;24062;47.480;8.768;2023-12-29T06:13:56;1.47;;;0.80;;
38264;SDS011;24062;47.480;8.768;2023-12-29T06:16:23;1.40;;;0.70;;
38264;SDS011;24062;47.480;8.768;2023-12-29T06:18:52;1.60;;;1.10;;
38264;SDS011;24062;47.480;8.768;2023-12-29T06:21:19;1.70;;;1.00;;
38264;SDS011;24062;47.480;8.768;2023-12-29T06:23:47;1.73;;;0.93;;
38264;SDS011;24062;47.480;8.768;2023-12-29T06:26:14;1.60;;;0.90;;
38264;SDS011;24062;47.480;8.768;2023-12-29T06:28:43;1.70;;;1.10;;
38264;SDS011;24062;47.480;8.768;2023-12-29T06:31:10;1.33;;;0.73;;
38264;SDS011;24062;47.480;8.768;2023-12-29T06:33:40;1.87;;;1.00;;
38264;SDS011;24062;47.480;8.768;2023-12-29T06:36:07;1.33;;;0.70;;
38264;SDS011;24062;47.480;8.768;2023-12-29T06:38:35;1.70;;;1.10;;
38264;SDS011;24062;47.480;8.768;2023-12-29T06:41:04;1.40;;;0.70;;
38264;SDS011;24062;47.480;8.768;2023-12-29T06:43:32;1.70;;;1.00;;
38264;SDS011;24062;47.480;8.768;2023-12-29T06:45:58;1.60;;;0.80;;
38264;SDS011;24062;47.480;8.768;2023-12-29T06:48:25;1.50;;;0.90;;
38264;SDS011;24062;47.480;8.768;2023-12-29T06:50:52;1.60;;;0.87;;
38264;SDS011;24062;47.480;8.768;2023-12-29T06:53:19;1.50;;;1.00;;
38264;SDS011;24062;47.480;8.768;2023-12-29T06:55:46;1.70;;;1.10;;
38264;SDS011;24062;47.480;8.768;2023-12-29T06:58:14;1.40;;;0.80;;
38264;SDS011;24062;47.480;8.768;2023-12-29T07:00:41;2.03;;;0.80;;
38264;SDS011;24062;47.480;8.768;2023-12-29T07:03:09;1.80;;;1.00;;
38264;SDS011;24062;47.480;8.768;2023-12-29T07:05:38;1.40;;;0.80;;
38264;SDS011;24062;47.480;8.768;2023-12-29T07:08:05;1.67;;;1.10;;
38264;SDS011;24062;47.480;8.768;2023-12-29T07:10:32;1.43;;;0.80;;
38264;SDS011;24062;47.480;8.768;2023-12-29T07:12:59;1.50;;;1.07;;
38264;SDS011;24062;47.480;8.768;2023-12-29T07:15:27;1.60;;;1.07;;
38264;SDS011;24062;47.480;8.768;2023-12-29T07:17:54;1.60;;;0.80;;
38264;SDS011;24062;47.480;8.768;2023-12-29T07:20:21;1.63;;;0.90;;
38264;SDS011;24062;47.480;8.768;2023-12-29T07:22:48;1.40;;;0.73;;
38264;SDS011;24062;47.480;8.768;2023-12-29T07:25:15;1.70;;;1.00;;
38264;SDS011;24062;47.480;8.768;2023-12-29T07:27:42;1.47;;;0.93;;
38264;SDS011;24062;47.480;8.768;2023-12-29T07:30:09;1.63;;;0.90;;
38264;SDS011;24062;47.480;8.768;2023-12-29T07:32:38;1.50;;;1.00;;
38264;SDS011;24062;47.480;8.768;2023-12-29T07:35:05;1.77;;;1.10;;
38264;SDS011;24062;47.480;8.768;2023-12-29T07:37:33;1.50;;;0.80;;
38264;SDS011;24062;47.480;8.768;2023-12-29T07:40:00;1.50;;;0.77;;
38264;SDS011;24062;47.480;8.768;2023-12-29T07:42:28;1.40;;;0.70;;
38264;SDS011;24062;47.480;8.768;2023-12-29T07:44:57;1.60;;;1.00;;
38264;SDS011;24062;47.480;8.768;2023-12-29T07:47:24;1.40;;;0.80;;
38264;SDS011;24062;47.480;8.768;2023-12-29T07:49:52;1.70;;;1.00;;
38264;SDS011;24062;47.480;8.768;2023-12-29T07:52:19;1.33;;;0.80;;
38264;SDS011;24062;47.480;8.768;2023-12-29T07:54:47;1.60;;;1.10;;
38264;SDS011;24062;47.480;8.768;2023-12-29T07:57:14;1.40;;;0.77;;
38264;SDS011;24062;47.480;8.768;2023-12-29T07:59:40;1.30;;;0.70;;
38264;SDS011;24062;47.480;8.768;2023-12-29T08:02:07;1.50;;;0.73;;
38264;SDS011;24062;47.480;8.768;2023-12-29T08:04:34;1.50;;;0.87;;
38264;SDS011;24062;47.480;8.768;2023-12-29T08:07:03;1.30;;;0.70;;
38264;SDS011;24062;47.480;8.768;2023-12-29T08:09:30;1.47;;;0.90;;
38264;SDS011;24062;47.480;8.768;2023-12-29T08:11:57;1.60;;;1.00;;
38264;SDS011;24062;47.480;8.768;2023-12-29T08:14:24;1.50;;;0.80;;
38264;SDS011;24062;47.480;8.768;2023-12-29T08:16:51;1.23;;;0.60;;
38264;SDS011;24062;47.480;8.768;2023-12-29T08:19:18;1.90;;;0.80;;
38264;SDS011;24062;47.480;8.768;2023-12-29T08:21:45;1.40;;;0.80;;
38264;SDS011;24062;47.480;8.768;2023-12-29T08:24:14;1.77;;;1.33;;
38264;SDS011;24062;47.480;8.768;2023-12-29T08:26:43;1.60;;;1.03;;
38264;SDS011;24062;47.480;8.768;2023-12-29T08:29:11;1.80;;;0.93;;
38264;SDS011;24062;47.480;8.768;2023-12-29T08:31:38;1.60;;;0.80;;
38264;SDS011;24062;47.480;8.768;2023-12-29T08:34:05;1.47;;;0.83;;
38264;SDS011;24062;47.480;8.768;2023-12-29T08:36:32;2.53;;;1.13;;
38264;SDS011;24062;47.480;8.768;2023-12-29T08:38:59;1.40;;;0.70;;
38264;SDS011;24062;47.480;8.768;2023-12-29T08:41:27;1.60;;;1.00;;
38264;SDS011;24062;47.480;8.768;2023-12-29T08:43:54;1.70;;;0.70;;
38264;SDS011;24062;47.480;8.768;2023-12-29T08:46:21;1.50;;;0.93;;
38264;SDS011;24062;47.480;8.768;2023-12-29T08:48:49;1.43;;;0.70;;
38264;SDS011;24062;47.480;8.768;2023-12-29T08:51:16;1.60;;;1.00;;
38264;SDS011;24062;47.480;8.768;2023-12-29T08:53:44;2.10;;;1.07;;
38264;SDS011;24062;47.480;8.768;2023-12-29T08:56:11;1.40;;;0.63;;
38264;SDS011;24062;47.480;8.768;2023-12-29T08:58:40;1.60;;;0.90;;
38264;SDS011;24062;47.480;8.768;2023-12-29T09:01:07;1.50;;;0.80;;
38264;SDS011;24062;47.480;8.768;2023-12-29T09:03:33;1.50;;;0.80;;
38264;SDS011;24062;47.480;8.768;2023-12-29T09:06:00;1.50;;;0.70;;
38264;SDS011;24062;47.480;8.768;2023-12-29T09:08:28;1.30;;;0.80;;
38264;SDS011;24062;47.480;8.768;2023-12-29T09:10:55;1.50;;;0.77;;
38264;SDS011;24062;47.480;8.768;2023-12-29T09:13:22;1.40;;;0.80;;
38264;SDS011;24062;47.480;8.768;2023-12-29T09:15:51;1.50;;;0.80;;
38264;SDS011;24062;47.480;8.768;2023-12-29T09:18:19;1.33;;;0.80;;
38264;SDS011;24062;47.480;8.768;2023-12-29T09:20:45;1.60;;;0.77;;
38264;SDS011;24062;47.480;8.768;2023-12-29T09:23:12;1.50;;;0.80;;
38264;SDS011;24062;47.480;8.768;2023-12-29T09:25:39;1.30;;;0.60;;
38264;SDS011;24062;47.480;8.768;2023-12-29T09:28:06;1.40;;;0.70;;
38264;SDS011;24062;47.480;8.768;2023-12-29T09:30:33;1.60;;;0.90;;
38264;SDS011;24062;47.480;8.768;2023-12-29T09:33:02;1.37;;;0.80;;
38264;SDS011;24062;47.480;8.768;2023-12-29T09:35:28;1.33;;;0.70;;
38264;SDS011;24062;47.480;8.768;2023-12-29T09:37:55;1.37;;;0.80;;
38264;SDS011;24062;47.480;8.768;2023-12-29T09:40:23;1.60;;;0.87;;
38264;SDS011;24062;47.480;8.768;2023-12-29T09:42:51;1.57;;;0.87;;
38264;SDS011;24062;47.480;8.768;2023-12-29T09:45:20;1.50;;;0.80;;
38264;SDS011;24062;47.480;8.768;2023-12-29T09:47:50;1.53;;;0.90;;
38264;SDS011;24062;47.480;8.768;2023-12-29T09:50:20;1.67;;;1.00;;
38264;SDS011;24062;47.480;8.768;2023-12-29T09:52:48;1.57;;;0.73;;
38264;SDS011;24062;47.480;8.768;2023-12-29T09:55:15;1.53;;;0.80;;
38264;SDS011;24062;47.480;8.768;2023-12-29T09:57:43;1.50;;;0.80;;
38264;SDS011;24062;47.480;8.768;2023-12-29T10:00:13;1.50;;;0.70;;
38264;SDS011;24062;47.480;8.768;2023-12-29T10:02:42;1.67;;;0.90;;
38264;SDS011;24062;47.480;8.768;2023-12-29T10:05:09;1.30;;;0.60;;
38264;SDS011;24062;47.480;8.768;2023-12-29T10:07:38;1.37;;;0.60;;
38264;SDS011;24062;47.480;8.768;2023-12-29T10:10:05;1.60;;;0.70;;
38264;SDS011;24062;47.480;8.768;2023-12-29T10:12:33;1.30;;;0.70;;
38264;SDS011;24062;47.480;8.768;2023-12-29T10:15:04;1.50;;;0.83;;
38264;SDS011;24062;47.480;8.768;2023-12-29T10:17:36;1.40;;;0.73;;
38264;SDS011;24062;47.480;8.768;2023-12-29T10:20:13;1.30;;;0.60;;
38264;SDS011;24062;47.480;8.768;2023-12-29T10:22:54;1.43;;;0.80;;
38264;SDS011;24062;47.480;8.768;2023-12-29T10:25:31;1.70;;;0.83;;
38264;SDS011;24062;47.480;8.768;2023-12-29T10:27:58;1.40;;;1.00;;
38264;SDS011;24062;47.480;8.768;2023-12-29T10:30:26;1.40;;;0.80;;
38264;SDS011;24062;47.480;8.768;2023-12-29T10:32:52;1.50;;;0.80;;
38264;SDS011;24062;47.480;8.768;2023-12-29T10:35:19;1.30;;;0.70;;
38264;SDS011;24062;47.480;8.768;2023-12-29T10:37:46;1.50;;;0.70;;
38264;SDS011;24062;47.480;8.768;2023-12-29T10:40:18;1.33;;;0.70;;
38264;SDS011;24062;47.480;8.768;2023-12-29T10:42:51;1.40;;;0.80;;
38264;SDS011;24062;47.480;8.768;2023-12-29T10:45:19;1.70;;;0.87;;
38264;SDS011;24062;47.480;8.768;2023-12-29T10:47:47;1.37;;;0.63;;
38264;SDS011;24062;47.480;8.768;2023-12-29T10:50:14;1.40;;;0.60;;
38264;SDS011;24062;47.480;8.768;2023-12-29T10:52:41;1.57;;;0.70;;
38264;SDS011;24062;47.480;8.768;2023-12-29T10:55:08;1.40;;;0.70;;
38264;SDS011;24062;47.480;8.768;2023-12-29T10:57:38;1.33;;;0.50;;
38264;SDS011;24062;47.480;8.768;2023-12-29T11:00:06;1.30;;;0.60;;
38264;SDS011;24062;47.480;8.768;2023-12-29T11:02:34;1.60;;;1.00;;
38264;SDS011;24062;47.480;8.768;2023-12-29T11:05:01;1.40;;;0.70;;
38264;SDS011;24062;47.480;8.768;2023-12-29T11:07:36;1.40;;;0.70;;
38264;SDS011;24062;47.480;8.768;2023-12-29T11:10:04;1.33;;;0.63;;
38264;SDS011;24062;47.480;8.768;2023-12-29T11:12:33;1.30;;;0.60;;
38264;SDS011;24062;47.480;8.768;2023-12-29T11:15:03;1.30;;;0.70;;
38264;SDS011;24062;47.480;8.768;2023-12-29T11:17:31;1.50;;;0.70;;
38264;SDS011;24062;47.480;8.768;2023-12-29T11:20:00;1.40;;;0.70;;
38264;SDS011;24062;47.480;8.768;2023-12-29T11:22:28;1.40;;;0.77;;
38264;SDS011;24062;47.480;8.768;2023-12-29T11:24:56;1.60;;;0.90;;
38264;SDS011;24062;47.480;8.768;2023-12-29T11:27:30;1.40;;;0.60;;
38264;SDS011;24062;47.480;8.768;2023-12-29T11:29:57;1.40;;;0.67;;
38264;SDS011;24062;47.480;8.768;2023-12-29T11:32:29;1.37;;;0.57;;
38264;SDS011;24062;47.480;8.768;2023-12-29T11:35:10;1.70;;;0.80;;
38264;SDS011;24062;47.480;8.768;2023-12-29T11:40:41;1.30;;;0.60;;
38264;SDS011;24062;47.480;8.768;2023-12-29T11:43:13;1.40;;;0.70;;
38264;SDS011;24062;47.480;8.768;2023-12-29T11:45:42;1.30;;;0.70;;
38264;SDS011;24062;47.480;8.768;2023-12-29T11:48:11;1.53;;;0.60;;
38264;SDS011;24062;47.480;8.768;2023-12-29T11:50:39;1.40;;;0.70;;
38264;SDS011;24062;47.480;8.768;2023-12-29T11:53:06;1.40;;;0.70;;
38264;SDS011;24062;47.480;8.768;2023-12-29T11:55:34;1.60;;;0.80;;
38264;SDS011;24062;47.480;8.768;2023-12-29T11:58:02;1.70;;;0.70;;
38264;SDS011;24062;47.480;8.768;2023-12-29T12:00:43;1.50;;;0.70;;
38264;SDS011;24062;47.480;8.768;2023-12-29T12:03:19;1.87;;;0.60;;
38264;SDS011;24062;47.480;8.768;2023-12-29T12:05:51;1.43;;;0.63;;
38264;SDS011;24062;47.480;8.768;2023-12-29T12:08:29;1.40;;;0.90;;
38264;SDS011;24062;47.480;8.768;2023-12-29T12:10:57;1.33;;;0.60;;
38264;SDS011;24062;47.480;8.768;2023-12-29T12:13:45;1.50;;;0.60;;
38264;SDS011;24062;47.480;8.768;2023-12-29T12:19:15;1.40;;;0.63;;
38264;SDS011;24062;47.480;8.768;2023-12-29T12:21:45;1.40;;;0.73;;
38264;SDS011;24062;47.480;8.768;2023-12-29T12:24:13;1.43;;;0.70;;
38264;SDS011;24062;47.480;8.768;2023-12-29T12:26:41;1.20;;;0.50;;
38264;SDS011;24062;47.480;8.768;2023-12-29T12:29:08;1.40;;;0.67;;
38264;SDS011;24062;47.480;8.768;2023-12-29T12:31:35;1.40;;;0.70;;
38264;SDS011;24062;47.480;8.768;2023-12-29T12:34:02;1.50;;;0.63;;
38264;SDS011;24062;47.480;8.768;2023-12-29T12:36:32;1.33;;;0.73;;
38264;SDS011;24062;47.480;8.768;2023-12-29T12:39:13;1.20;;;0.60;;
38264;SDS011;24062;47.480;8.768;2023-12-29T12:41:40;1.20;;;0.60;;
38264;SDS011;24062;47.480;8.768;2023-12-29T12:44:08;1.50;;;0.80;;
38264;SDS011;24062;47.480;8.768;2023-12-29T12:46:39;1.40;;;0.50;;
38264;SDS011;24062;47.480;8.768;2023-12-29T12:49:07;1.50;;;0.70;;
38264;SDS011;24062;47.480;8.768;2023-12-29T12:51:36;1.50;;;0.80;;
38264;SDS011;24062;47.480;8.768;2023-12-29T12:54:03;1.30;;;0.60;;
38264;SDS011;24062;47.480;8.768;2023-12-29T12:56:30;1.20;;;0.50;;
38264;SDS011;24062;47.480;8.768;2023-12-29T12:58:58;1.30;;;0.60;;
38264;SDS011;24062;47.480;8.768;2023-12-29T13:01:27;1.27;;;0.60;;
38264;SDS011;24062;47.480;8.768;2023-12-29T13:03:56;1.30;;;0.60;;
38264;SDS011;24062;47.480;8.768;2023-12-29T13:06:24;1.80;;;0.80;;
38264;SDS011;24062;47.480;8.768;2023-12-29T13:08:52;1.30;;;0.70;;
38264;SDS011;24062;47.480;8.768;2023-12-29T13:11:19;1.10;;;0.50;;
38264;SDS011;24062;47.480;8.768;2023-12-29T13:13:50;1.40;;;0.70;;
38264;SDS011;24062;47.480;8.768;2023-12-29T13:16:28;1.40;;;0.60;;
38264;SDS011;24062;47.480;8.768;2023-12-29T13:18:55;1.30;;;0.50;;
38264;SDS011;24062;47.480;8.768;2023-12-29T13:21:22;1.43;;;0.70;;
38264;SDS011;24062;47.480;8.768;2023-12-29T13:23:49;1.50;;;0.60;;
38264;SDS011;24062;47.480;8.768;2023-12-29T13:26:18;1.20;;;0.57;;
38264;SDS011;24062;47.480;8.768;2023-12-29T13:28:45;1.30;;;0.60;;
38264;SDS011;24062;47.480;8.768;2023-12-29T13:31:12;1.40;;;0.77;;
38264;SDS011;24062;47.480;8.768;2023-12-29T13:33:43;1.70;;;0.70;;
38264;SDS011;24062;47.480;8.768;2023-12-29T13:36:18;1.37;;;0.67;;
38264;SDS011;24062;47.480;8.768;2023-12-29T13:38:50;1.20;;;0.57;;
38264;SDS011;24062;47.480;8.768;2023-12-29T13:41:21;1.50;;;0.70;;
38264;SDS011;24062;47.480;8.768;2023-12-29T13:43:50;1.57;;;0.87;;
38264;SDS011;24062;47.480;8.768;2023-12-29T13:46:19;1.30;;;0.60;;
38264;SDS011;24062;47.480;8.768;2023-12-29T13:48:46;1.47;;;0.80;;
38264;SDS011;24062;47.480;8.768;2023-12-29T13:51:15;1.20;;;0.53;;
38264;SDS011;24062;47.480;8.768;2023-12-29T13:53:42;1.20;;;0.60;;
38264;SDS011;24062;47.480;8.768;2023-12-29T13:56:10;1.40;;;0.70;;
38264;SDS011;24062;47.480;8.768;2023-12-29T13:58:38;1.50;;;0.70;;
38264;SDS011;24062;47.480;8.768;2023-12-29T14:01:07;1.30;;;0.70;;
38264;SDS011;24062;47.480;8.768;2023-12-29T14:03:37;1.20;;;0.50;;
38264;SDS011;24062;47.480;8.768;2023-12-29T14:06:12;1.30;;;0.60;;
38264;SDS011;24062;47.480;8.768;2023-12-29T14:08:47;1.50;;;0.73;;
38264;SDS011;24062;47.480;8.768;2023-12-29T14:11:14;1.40;;;0.50;;
38264;SDS011;24062;47.480;8.768;2023-12-29T14:13:43;1.50;;;0.60;;
38264;SDS011;24062;47.480;8.768;2023-12-29T14:16:10;1.30;;;0.60;;
38264;SDS011;24062;47.480;8.768;2023-12-29T14:18:42;1.30;;;0.50;;
38264;SDS011;24062;47.480;8.768;2023-12-29T14:21:23;1.30;;;0.60;;
38264;SDS011;24062;47.480;8.768;2023-12-29T14:24:06;2.07;;;0.80;;
38264;SDS011;24062;47.480;8.768;2023-12-29T14:26:34;1.50;;;0.70;;
38264;SDS011;24062;47.480;8.768;2023-12-29T14:29:05;1.20;;;0.50;;
38264;SDS011;24062;47.480;8.768;2023-12-29T14:31:34;1.20;;;0.67;;
38264;SDS011;24062;47.480;8.768;2023-12-29T14:34:03;1.50;;;0.70;;
38264;SDS011;24062;47.480;8.768;2023-12-29T14:36:30;1.30;;;0.60;;
38264;SDS011;24062;47.480;8.768;2023-12-29T14:38:57;1.30;;;0.60;;
38264;SDS011;24062;47.480;8.768;2023-12-29T14:41:24;1.20;;;0.50;;
38264;SDS011;24062;47.480;8.768;2023-12-29T14:43:51;1.40;;;0.70;;
38264;SDS011;24062;47.480;8.768;2023-12-29T14:46:20;1.30;;;0.60;;
38264;SDS011;24062;47.480;8.768;2023-12-29T14:48:47;1.33;;;0.80;;
38264;SDS011;24062;47.480;8.768;2023-12-29T14:51:14;1.37;;;0.70;;
38264;SDS011;24062;47.480;8.768;2023-12-29T14:53:42;1.20;;;0.50;;
38264;SDS011;24062;47.480;8.768;2023-12-29T14:56:10;1.40;;;0.80;;
38264;SDS011;24062;47.480;8.768;2023-12-29T14:58:37;1.20;;;0.60;;
38264;SDS011;24062;47.480;8.768;2023-12-29T15:01:04;1.20;;;0.57;;